createdAt,value
2019-05-23T00:02:00.583Z,1.10
2019-05-23T00:04:37.470Z,1.10
2019-05-23T00:07:10.913Z,1.10
2019-05-23T00:09:39.795Z,1.00
2019-05-23T00:12:31.183Z,1.15
2019-05-23T00:15:00.614Z,1.42
2019-05-23T00:17:29.658Z,1.10
2019-05-23T00:19:59.326Z,1.00
2019-05-23T00:22:29.260Z,1.25
2019-05-23T00:24:57.878Z,1.10
2019-05-23T00:27:26.672Z,0.88
2019-05-23T00:29:56.930Z,1.17
2019-05-23T00:32:35.098Z,1.00
2019-05-23T00:35:04.171Z,1.10
2019-05-23T00:37:32.926Z,1.17
2019-05-23T00:40:01.588Z,1.10
2019-05-23T00:42:31.598Z,1.20
2019-05-23T00:45:00.587Z,1.00
2019-05-23T00:47:30.126Z,1.20
2019-05-23T00:49:58.989Z,1.10
2019-05-23T00:52:28.920Z,1.20
2019-05-23T00:54:58.171Z,1.20
2019-05-23T00:57:28.350Z,1.37
2019-05-23T00:59:57.727Z,1.05
2019-05-23T01:02:28.252Z,1.10
2019-05-23T01:04:56.807Z,1.20
2019-05-23T01:07:26.890Z,0.95
2019-05-23T01:09:56.637Z,1.00
2019-05-23T01:12:25.223Z,1.00
2019-05-23T01:14:54.574Z,1.00
2019-05-23T01:17:23.809Z,1.20
2019-05-23T01:19:54.026Z,1.10
2019-05-23T01:22:22.592Z,1.10
2019-05-23T01:24:54.849Z,1.20
2019-05-23T01:27:24.990Z,1.07
2019-05-23T01:29:55.762Z,1.10
2019-05-23T01:32:29.057Z,1.10
2019-05-23T01:34:57.819Z,0.98
2019-05-23T01:37:26.663Z,1.20
2019-05-23T01:39:55.500Z,1.15
2019-05-23T01:42:25.837Z,1.07
2019-05-23T01:44:54.597Z,1.10
2019-05-23T01:47:23.482Z,1.30
2019-05-23T01:49:53.231Z,1.17
2019-05-23T01:52:22.407Z,1.00
2019-05-23T01:54:50.956Z,1.10
2019-05-23T01:57:19.760Z,0.90
2019-05-23T01:59:48.467Z,0.93
2019-05-23T02:02:19.105Z,1.20
2019-05-23T02:04:48.421Z,0.95
2019-05-23T02:07:18.156Z,1.00
2019-05-23T02:09:46.828Z,1.00
2019-05-23T02:12:15.880Z,1.00
2019-05-23T02:14:46.065Z,1.02
2019-05-23T02:17:14.734Z,1.30
2019-05-23T02:19:43.578Z,0.90
2019-05-23T02:22:13.218Z,1.10
2019-05-23T02:24:42.087Z,1.22
2019-05-23T02:27:11.922Z,1.10
2019-05-23T02:29:41.891Z,1.20
2019-05-23T02:32:10.487Z,1.10
2019-05-23T02:34:40.709Z,0.90
2019-05-23T02:37:18.168Z,0.90
2019-05-23T02:39:53.250Z,1.00
2019-05-23T02:42:47.465Z,1.00
2019-05-23T02:45:19.123Z,1.10
2019-05-23T02:47:50.983Z,1.00
2019-05-23T02:50:25.933Z,1.12
2019-05-23T02:52:56.507Z,1.12
2019-05-23T02:55:29.427Z,1.00
2019-05-23T02:58:03.171Z,0.90
2019-05-23T03:00:54.257Z,1.20
2019-05-23T03:03:19.477Z,0.93
2019-05-23T03:05:48.242Z,0.90
2019-05-23T03:08:17.341Z,0.90
2019-05-23T03:10:53.456Z,0.95
2019-05-23T03:13:24.615Z,1.10
2019-05-23T03:15:53.467Z,0.95
2019-05-23T03:18:23.462Z,0.93
2019-05-23T03:20:52.905Z,1.00
2019-05-23T03:23:22.327Z,0.80
2019-05-23T03:26:36.024Z,0.95
2019-05-23T03:29:06.368Z,0.90
2019-05-23T03:31:39.575Z,1.00
2019-05-23T03:34:10.593Z,1.05
2019-05-23T03:36:39.481Z,0.70
2019-05-23T03:39:08.970Z,1.10
2019-05-23T03:41:37.821Z,1.30
2019-05-23T03:44:07.258Z,1.00
2019-05-23T03:46:38.209Z,0.70
2019-05-23T03:49:08.750Z,1.15
2019-05-23T03:51:37.775Z,1.00
2019-05-23T03:54:06.742Z,0.93
2019-05-23T03:56:35.716Z,1.10
2019-05-23T03:59:06.519Z,0.90
2019-05-23T04:01:47.226Z,0.90
2019-05-23T04:04:07.273Z,1.10
2019-05-23T04:06:35.929Z,0.98
2019-05-23T04:09:06.392Z,1.05
2019-05-23T04:11:35.146Z,0.80
2019-05-23T04:14:04.324Z,1.00
2019-05-23T04:16:33.210Z,0.80
2019-05-23T04:19:01.790Z,0.80
2019-05-23T04:21:31.094Z,0.95
2019-05-23T04:23:59.784Z,0.90
2019-05-23T04:26:29.146Z,0.80
2019-05-23T04:28:58.295Z,1.10
2019-05-23T04:31:27.317Z,0.70
2019-05-23T04:33:56.143Z,1.05
2019-05-23T04:36:24.776Z,0.80
2019-05-23T04:38:53.662Z,0.90
2019-05-23T04:41:22.220Z,1.07
2019-05-23T04:43:50.852Z,0.80
2019-05-23T04:46:20.624Z,0.90
2019-05-23T04:48:49.740Z,0.93
2019-05-23T04:51:18.307Z,0.70
2019-05-23T04:53:47.470Z,0.90
2019-05-23T04:56:16.075Z,0.88
2019-05-23T04:58:45.269Z,1.05
2019-05-23T05:01:13.951Z,0.90
2019-05-23T05:03:42.620Z,1.05
2019-05-23T05:06:11.264Z,0.80
2019-05-23T05:08:40.234Z,1.10
2019-05-23T05:11:09.568Z,0.93
2019-05-23T05:13:38.650Z,0.90
2019-05-23T05:16:07.304Z,0.90
2019-05-23T05:18:36.863Z,0.98
2019-05-23T05:21:05.434Z,0.93
2019-05-23T05:23:34.061Z,0.80
2019-05-23T05:26:02.625Z,0.90
2019-05-23T05:28:31.266Z,0.90
2019-05-23T05:30:59.854Z,0.88
2019-05-23T05:33:28.920Z,0.90
2019-05-23T05:35:57.675Z,0.85
2019-05-23T05:38:28.706Z,0.90
2019-05-23T05:40:56.839Z,0.90
2019-05-23T05:43:25.950Z,0.90
2019-05-23T05:45:55.022Z,0.70
2019-05-23T05:48:24.136Z,0.93
2019-05-23T05:50:52.970Z,0.90
2019-05-23T05:53:21.890Z,0.80
2019-05-23T05:55:50.455Z,0.70
2019-05-23T05:58:19.203Z,0.98
2019-05-23T06:01:01.038Z,0.90
2019-05-23T06:03:30.002Z,0.80
2019-05-23T06:06:11.474Z,0.90
2019-05-23T06:08:41.046Z,0.80
2019-05-23T06:11:10.131Z,1.00
2019-05-23T06:13:39.012Z,1.10
2019-05-23T06:16:07.568Z,0.90
2019-05-23T06:18:36.415Z,0.70
2019-05-23T06:21:06.232Z,0.82
2019-05-23T06:23:34.869Z,1.00
2019-05-23T06:26:03.434Z,0.68
2019-05-23T06:28:33.046Z,0.75
2019-05-23T06:31:02.387Z,0.60
2019-05-23T06:33:31.514Z,0.80
2019-05-23T06:36:00.473Z,0.90
2019-05-23T06:38:30.091Z,0.93
2019-05-23T06:40:59.218Z,0.90
2019-05-23T06:43:28.048Z,0.85
2019-05-23T06:45:56.679Z,0.80
2019-05-23T06:48:25.579Z,0.88
2019-05-23T06:50:54.162Z,0.90
2019-05-23T06:53:22.770Z,0.82
2019-05-23T06:55:51.359Z,0.80
2019-05-23T06:58:20.251Z,1.05
2019-05-23T07:00:49.594Z,0.80
2019-05-23T07:03:19.050Z,0.90
2019-05-23T07:05:48.131Z,0.90
2019-05-23T07:08:16.695Z,0.95
2019-05-23T07:10:45.915Z,0.90
2019-05-23T07:13:16.637Z,1.10
2019-05-23T07:15:45.298Z,0.75
2019-05-23T07:18:14.215Z,0.90
2019-05-23T07:20:42.819Z,1.07
2019-05-23T07:23:12.188Z,0.85
2019-05-23T07:25:40.827Z,1.00
2019-05-23T07:28:09.437Z,0.93
2019-05-23T07:30:38.181Z,0.90
2019-05-23T07:33:06.838Z,0.90
2019-05-23T07:35:35.439Z,2.00
2019-05-23T07:38:04.070Z,1.12
2019-05-23T07:40:32.791Z,0.90
2019-05-23T07:43:01.416Z,1.25
2019-05-23T07:45:39.724Z,1.30
2019-05-23T07:48:07.154Z,1.10
2019-05-23T07:50:35.886Z,1.07
2019-05-23T07:53:05.971Z,1.02
2019-05-23T07:55:40.746Z,1.22
2019-05-23T07:58:13.412Z,1.27
2019-05-23T08:00:45.334Z,1.35
2019-05-23T08:03:14.753Z,1.80
2019-05-23T08:05:43.588Z,1.50
2019-05-23T08:08:12.272Z,1.25
2019-05-23T08:10:41.293Z,1.25
2019-05-23T08:13:10.237Z,1.47
2019-05-23T08:15:38.897Z,1.30
2019-05-23T08:18:07.495Z,1.50
2019-05-23T08:20:36.107Z,1.20
2019-05-23T08:23:04.711Z,1.27
2019-05-23T08:25:35.610Z,1.77
2019-05-23T08:28:04.591Z,1.50
2019-05-23T08:30:34.018Z,1.35
2019-05-23T08:33:02.824Z,2.00
2019-05-23T08:35:33.940Z,2.33
2019-05-23T08:38:03.316Z,2.35
2019-05-23T08:40:33.268Z,2.20
2019-05-23T08:43:01.906Z,2.85
2019-05-23T08:45:30.667Z,3.98
2019-05-23T08:47:59.404Z,3.98
2019-05-23T08:50:28.921Z,2.42
2019-05-23T08:52:57.783Z,3.30
2019-05-23T08:55:26.627Z,3.47
2019-05-23T08:57:55.305Z,2.75
2019-05-23T09:00:26.973Z,2.50
2019-05-23T09:02:58.523Z,3.35
2019-05-23T09:05:28.107Z,3.30
2019-05-23T09:07:57.571Z,3.22
2019-05-23T09:10:26.736Z,3.12
2019-05-23T09:12:55.730Z,2.67
2019-05-23T09:15:24.523Z,2.75
2019-05-23T09:17:54.255Z,2.77
2019-05-23T09:20:23.106Z,2.90
2019-05-23T09:22:51.709Z,2.90
2019-05-23T09:25:20.961Z,3.65
2019-05-23T09:27:51.421Z,2.90
2019-05-23T09:30:21.067Z,3.92
2019-05-23T09:32:50.009Z,3.08
2019-05-23T09:35:21.279Z,3.30
2019-05-23T09:37:49.303Z,3.10
2019-05-23T09:40:18.237Z,3.05
2019-05-23T09:42:46.789Z,2.98
2019-05-23T09:45:15.983Z,3.47
2019-05-23T09:47:45.013Z,3.02
2019-05-23T09:50:16.121Z,2.90
2019-05-23T09:52:45.086Z,3.72
2019-05-23T09:55:14.166Z,3.02
2019-05-23T09:57:42.730Z,3.30
2019-05-23T10:00:13.675Z,3.72
2019-05-23T10:02:42.611Z,2.72
2019-05-23T10:05:12.000Z,2.80
2019-05-23T10:07:40.887Z,2.45
2019-05-23T10:10:11.522Z,2.77
2019-05-23T10:12:40.145Z,2.45
2019-05-23T10:15:10.741Z,2.30
2019-05-23T10:17:39.718Z,2.30
2019-05-23T10:20:08.478Z,1.77
2019-05-23T10:22:37.153Z,2.08
2019-05-23T10:25:05.756Z,1.90
2019-05-23T10:27:34.758Z,1.45
2019-05-23T10:30:03.430Z,1.87
2019-05-23T10:32:32.069Z,1.92
2019-05-23T10:35:01.085Z,2.02
2019-05-23T10:37:30.357Z,1.95
2019-05-23T10:39:58.935Z,1.50
2019-05-23T10:42:28.100Z,1.60
2019-05-23T10:44:56.930Z,1.70
2019-05-23T10:47:26.214Z,1.57
2019-05-23T10:49:54.984Z,1.70
2019-05-23T10:52:23.930Z,1.67
2019-05-23T10:54:52.570Z,1.35
2019-05-23T10:57:21.172Z,1.50
2019-05-23T10:59:49.803Z,1.42
2019-05-23T11:02:18.614Z,1.32
2019-05-23T11:04:47.274Z,1.27
2019-05-23T11:07:16.824Z,1.35
2019-05-23T11:09:45.384Z,1.12
2019-05-23T11:12:14.947Z,0.98
2019-05-23T11:14:44.194Z,1.05
2019-05-23T11:17:13.273Z,0.90
2019-05-23T11:19:42.295Z,1.35
2019-05-23T11:22:11.818Z,0.90
2019-05-23T11:24:40.920Z,1.17
2019-05-23T11:27:09.635Z,1.27
2019-05-23T11:29:38.224Z,1.07
2019-05-23T11:32:08.227Z,0.90
2019-05-23T11:34:37.135Z,1.02
2019-05-23T11:37:06.007Z,1.22
2019-05-23T11:39:42.229Z,0.82
2019-05-23T11:42:05.250Z,0.88
2019-05-23T11:44:33.834Z,0.88
2019-05-23T11:47:02.899Z,1.07
2019-05-23T11:49:31.541Z,0.90
2019-05-23T11:52:00.562Z,0.90
2019-05-23T11:54:29.611Z,1.00
2019-05-23T11:56:58.158Z,0.82
2019-05-23T11:59:27.103Z,1.00
2019-05-23T12:02:06.789Z,1.32
2019-05-23T12:04:40.265Z,1.30
2019-05-23T12:07:21.400Z,1.60
2019-05-23T12:09:50.108Z,1.30
2019-05-23T12:12:19.204Z,1.45
2019-05-23T12:14:47.768Z,1.15
2019-05-23T12:17:18.283Z,1.10
2019-05-23T12:19:47.276Z,1.27
2019-05-23T12:22:16.533Z,1.57
2019-05-23T12:24:45.162Z,1.40
2019-05-23T12:27:14.405Z,1.40
2019-05-23T12:29:43.307Z,1.35
2019-05-23T12:32:13.778Z,1.92
2019-05-23T12:34:42.608Z,1.32
2019-05-23T12:37:18.884Z,1.45
2019-05-23T12:39:42.255Z,1.27
2019-05-23T12:42:10.969Z,1.27
2019-05-23T12:44:39.697Z,1.27
2019-05-23T12:47:13.179Z,1.20
2019-05-23T12:49:50.659Z,1.10
2019-05-23T12:52:19.330Z,0.85
2019-05-23T12:54:47.902Z,1.35
2019-05-23T12:57:16.688Z,2.37
2019-05-23T12:59:45.273Z,3.10
2019-05-23T13:02:19.086Z,2.50
2019-05-23T13:04:47.971Z,3.12
2019-05-23T13:07:34.617Z,4.75
2019-05-23T13:09:47.753Z,2.35
2019-05-23T13:12:16.742Z,2.20
2019-05-23T13:14:45.698Z,2.37
2019-05-23T13:17:14.383Z,2.62
2019-05-23T13:19:43.123Z,4.55
2019-05-23T13:22:11.704Z,2.92
2019-05-23T13:24:52.135Z,2.83
2019-05-23T13:27:11.071Z,2.95
2019-05-23T13:29:39.798Z,2.90
2019-05-23T13:32:08.543Z,2.90
2019-05-23T13:34:37.923Z,2.90
2019-05-23T13:37:08.449Z,2.83
2019-05-23T13:39:37.464Z,2.70
2019-05-23T13:42:06.107Z,2.25
2019-05-23T13:44:36.131Z,1.65
2019-05-23T13:47:05.055Z,1.70
2019-05-23T13:49:34.465Z,2.35
2019-05-23T13:52:03.085Z,1.80
2019-05-23T13:54:35.908Z,1.72
2019-05-23T13:57:02.418Z,1.82
2019-05-23T13:59:31.383Z,1.20
2019-05-23T14:01:59.962Z,1.50
2019-05-23T14:04:28.642Z,1.55
2019-05-23T14:06:57.292Z,1.40
2019-05-23T14:09:27.478Z,1.40
2019-05-23T14:12:20.076Z,1.40
2019-05-23T14:14:26.544Z,1.50
2019-05-23T14:17:05.394Z,0.85
2019-05-23T14:19:34.065Z,1.17
2019-05-23T14:22:02.951Z,2.22
2019-05-23T14:24:31.610Z,1.40
2019-05-23T14:27:09.525Z,1.35
2019-05-23T14:29:38.202Z,1.42
2019-05-23T14:32:18.791Z,1.55
2019-05-23T14:34:47.374Z,1.77
2019-05-23T14:37:28.077Z,1.25
2019-05-23T14:40:00.366Z,2.20
2019-05-23T14:42:54.488Z,1.32
2019-05-23T14:45:41.007Z,1.50
2019-05-23T14:48:24.826Z,1.20
2019-05-23T14:51:01.437Z,1.07
2019-05-23T14:53:32.906Z,2.08
2019-05-23T14:56:01.543Z,2.37
2019-05-23T14:58:30.510Z,1.70
2019-05-23T15:00:59.562Z,1.50
2019-05-23T15:03:28.924Z,1.50
2019-05-23T15:05:57.830Z,1.87
2019-05-23T15:08:27.136Z,1.50
2019-05-23T15:10:56.334Z,1.22
2019-05-23T15:13:24.923Z,1.22
2019-05-23T15:15:53.542Z,1.67
2019-05-23T15:18:22.701Z,1.22
2019-05-23T15:20:51.272Z,1.35
2019-05-23T15:23:20.282Z,1.17
2019-05-23T15:25:48.990Z,1.15
2019-05-23T15:28:18.051Z,1.25
2019-05-23T15:30:46.679Z,1.27
2019-05-23T15:33:15.289Z,1.22
2019-05-23T15:35:44.122Z,1.00
2019-05-23T15:38:12.849Z,1.10
2019-05-23T15:40:41.493Z,1.30
2019-05-23T15:43:10.379Z,1.00
2019-05-23T15:45:39.399Z,1.25
2019-05-23T15:48:07.951Z,1.20
2019-05-23T15:50:45.281Z,1.02
2019-05-23T15:53:45.066Z,1.30
2019-05-23T15:56:40.379Z,1.20
2019-05-23T15:59:19.308Z,1.20
2019-05-23T16:01:57.378Z,0.90
2019-05-23T16:04:25.958Z,0.95
2019-05-23T16:06:55.327Z,1.07
2019-05-23T16:09:29.956Z,1.07
2019-05-23T16:11:56.052Z,1.20
2019-05-23T16:14:25.369Z,1.17
2019-05-23T16:16:56.710Z,0.60
2019-05-23T16:19:24.366Z,1.00
2019-05-23T16:21:53.282Z,0.93
2019-05-23T16:24:21.951Z,0.90
2019-05-23T16:26:50.695Z,1.00
2019-05-23T16:29:20.984Z,0.90
2019-05-23T16:31:49.717Z,0.72
2019-05-23T16:34:18.294Z,1.10
2019-05-23T16:36:46.939Z,1.17
2019-05-23T16:39:15.957Z,0.80
2019-05-23T16:41:44.866Z,0.70
2019-05-23T16:44:13.506Z,0.65
2019-05-23T16:46:42.165Z,0.90
2019-05-23T16:49:10.831Z,0.82
2019-05-23T16:51:39.479Z,0.80
2019-05-23T16:54:08.426Z,0.90
2019-05-23T16:56:49.916Z,0.65
2019-05-23T16:59:23.976Z,0.80
2019-05-23T17:02:06.646Z,0.80
2019-05-23T17:04:44.834Z,0.75
2019-05-23T17:07:31.408Z,0.60
2019-05-23T17:10:08.934Z,0.70
2019-05-23T17:12:41.154Z,0.88
2019-05-23T17:15:22.307Z,0.85
2019-05-23T17:18:03.463Z,0.95
2019-05-23T17:20:47.322Z,0.60
2019-05-23T17:23:34.520Z,0.72
2019-05-23T17:26:11.696Z,1.00
2019-05-23T17:28:42.972Z,0.90
2019-05-23T17:31:13.886Z,0.88
2019-05-23T17:33:42.647Z,1.02
2019-05-23T17:36:11.291Z,0.85
2019-05-23T17:38:39.845Z,0.80
2019-05-23T17:41:09.476Z,0.80
2019-05-23T17:43:38.169Z,0.85
2019-05-23T17:46:06.715Z,0.70
2019-05-23T17:48:35.630Z,0.62
2019-05-23T17:51:04.470Z,0.80
2019-05-23T17:53:33.027Z,1.07
2019-05-23T17:56:01.790Z,0.68
2019-05-23T17:58:30.925Z,0.95
2019-05-23T18:00:59.728Z,0.88
2019-05-23T18:03:28.398Z,0.82
2019-05-23T18:05:57.820Z,0.82
2019-05-23T18:08:26.893Z,0.70
2019-05-23T18:10:56.372Z,0.88
2019-05-23T18:13:25.270Z,1.07
2019-05-23T18:15:54.510Z,0.88
2019-05-23T18:18:23.745Z,0.75
2019-05-23T18:20:52.829Z,0.90
2019-05-23T18:23:22.160Z,0.57
2019-05-23T18:25:51.489Z,1.02
2019-05-23T18:28:20.798Z,0.80
2019-05-23T18:31:09.627Z,0.75
2019-05-23T18:33:37.903Z,0.82
2019-05-23T18:36:07.145Z,0.70
2019-05-23T18:38:35.968Z,1.10
2019-05-23T18:41:08.986Z,1.00
2019-05-23T18:43:34.835Z,0.70
2019-05-23T18:46:07.341Z,0.90
2019-05-23T18:48:36.242Z,0.70
2019-05-23T18:51:04.821Z,0.90
2019-05-23T18:53:34.083Z,0.70
2019-05-23T18:56:02.683Z,0.62
2019-05-23T18:58:31.567Z,0.62
2019-05-23T19:01:16.146Z,0.65
2019-05-23T19:03:44.783Z,0.62
2019-05-23T19:06:13.377Z,0.60
2019-05-23T19:08:42.023Z,0.88
2019-05-23T19:11:20.382Z,0.88
2019-05-23T19:13:41.607Z,0.85
2019-05-23T19:16:10.300Z,0.80
2019-05-23T19:18:39.491Z,0.62
2019-05-23T19:21:08.330Z,0.80
2019-05-23T19:23:37.671Z,0.78
2019-05-23T19:26:07.193Z,0.53
2019-05-23T19:28:36.077Z,0.80
2019-05-23T19:31:04.762Z,0.57
2019-05-23T19:33:34.451Z,0.88
2019-05-23T19:36:03.035Z,0.68
2019-05-23T19:38:31.690Z,0.53
2019-05-23T19:41:00.976Z,0.80
2019-05-23T19:43:30.450Z,0.80
2019-05-23T19:45:59.115Z,0.50
2019-05-23T19:48:28.242Z,0.50
2019-05-23T19:50:57.154Z,0.62
2019-05-23T19:53:25.809Z,0.85
2019-05-23T19:55:54.530Z,0.72
2019-05-23T19:58:23.537Z,0.70
2019-05-23T20:00:52.141Z,0.72
2019-05-23T20:03:21.175Z,0.70
2019-05-23T20:05:50.675Z,0.70
2019-05-23T20:08:19.266Z,0.60
2019-05-23T20:10:49.187Z,0.50
2019-05-23T20:13:18.767Z,0.70
2019-05-23T20:15:49.079Z,0.40
2019-05-23T20:18:18.023Z,0.60
2019-05-23T20:20:47.197Z,0.50
2019-05-23T20:23:16.666Z,0.60
2019-05-23T20:25:45.313Z,0.60
2019-05-23T20:28:14.162Z,0.72
2019-05-23T20:30:53.452Z,0.82
2019-05-23T20:33:22.146Z,0.70
2019-05-23T20:35:50.719Z,0.70
2019-05-23T20:38:20.001Z,0.90
2019-05-23T20:40:48.983Z,0.50
2019-05-23T20:43:17.663Z,0.50
2019-05-23T20:45:46.662Z,0.65
2019-05-23T20:48:15.226Z,0.80
2019-05-23T20:50:43.957Z,0.70
2019-05-23T20:53:12.583Z,0.45
2019-05-23T20:55:41.158Z,0.70
2019-05-23T20:58:09.728Z,0.53
2019-05-23T21:01:01.954Z,0.60
2019-05-23T21:03:34.319Z,0.50
2019-05-23T21:06:02.158Z,0.60
2019-05-23T21:08:30.905Z,0.70
2019-05-23T21:10:59.535Z,0.53
2019-05-23T21:13:28.140Z,0.80
2019-05-23T21:15:57.006Z,0.60
2019-05-23T21:18:25.899Z,0.60
2019-05-23T21:20:54.494Z,0.50
2019-05-23T21:23:23.062Z,0.70
2019-05-23T21:25:56.415Z,0.62
2019-05-23T21:28:25.358Z,0.60
2019-05-23T21:30:53.998Z,0.60
2019-05-23T21:33:22.858Z,0.50
2019-05-23T21:35:51.913Z,0.55
2019-05-23T21:38:20.490Z,0.40
2019-05-23T21:40:49.052Z,0.60
2019-05-23T21:43:17.641Z,0.50
2019-05-23T21:45:46.295Z,0.50
2019-05-23T21:48:15.051Z,0.60
2019-05-23T21:50:43.710Z,0.65
2019-05-23T21:53:12.342Z,0.50
2019-05-23T21:55:41.344Z,0.72
2019-05-23T21:58:10.769Z,0.40
2019-05-23T22:01:19.962Z,0.50
2019-05-23T22:03:53.889Z,0.40
2019-05-23T22:06:24.626Z,0.40
2019-05-23T22:08:53.455Z,0.60
2019-05-23T22:11:22.163Z,0.60
2019-05-23T22:13:50.794Z,0.60
2019-05-23T22:16:19.355Z,0.60
2019-05-23T22:18:47.964Z,0.60
2019-05-23T22:21:17.431Z,0.60
2019-05-23T22:23:45.983Z,0.60
2019-05-23T22:26:14.819Z,0.55
2019-05-23T22:28:43.384Z,0.53
2019-05-23T22:31:12.331Z,0.57
2019-05-23T22:33:44.998Z,0.60
2019-05-23T22:36:14.572Z,0.50
2019-05-23T22:38:43.130Z,0.60
2019-05-23T22:41:11.734Z,0.40
2019-05-23T22:43:40.298Z,0.50
2019-05-23T22:46:09.844Z,0.60
2019-05-23T22:48:38.453Z,0.72
2019-05-23T22:51:07.131Z,0.60
2019-05-23T22:53:35.763Z,0.60
2019-05-23T22:56:04.530Z,0.50
2019-05-23T22:58:33.361Z,0.42
2019-05-23T23:01:02.467Z,0.65
2019-05-23T23:03:31.198Z,0.60
2019-05-23T23:05:59.961Z,0.45
2019-05-23T23:08:30.050Z,0.50
2019-05-23T23:10:58.643Z,0.50
2019-05-23T23:13:38.127Z,0.40
2019-05-23T23:15:58.023Z,0.50
2019-05-23T23:18:27.154Z,0.60
2019-05-23T23:20:55.722Z,0.50
2019-05-23T23:23:24.297Z,0.30
2019-05-23T23:25:53.309Z,0.45
2019-05-23T23:28:21.930Z,0.50
2019-05-23T23:30:51.175Z,0.40
2019-05-23T23:33:20.185Z,0.50
2019-05-23T23:35:48.755Z,0.50
2019-05-23T23:38:17.420Z,0.50
2019-05-23T23:40:46.328Z,0.70
2019-05-23T23:43:14.906Z,0.50
2019-05-23T23:46:01.665Z,0.50
2019-05-23T23:48:48.341Z,0.60
2019-05-23T23:51:35.176Z,0.37
2019-05-23T23:54:21.580Z,0.50
2019-05-23T23:57:08.593Z,0.50
2019-05-23T23:59:36.663Z,0.60
